createdAt,value
2019-01-02T00:06:42.667Z,21.4
2019-01-02T00:16:41.879Z,21.5
2019-01-02T00:26:41.074Z,21.4
2019-01-02T00:36:40.288Z,21.3
2019-01-02T00:46:39.489Z,21.3
2019-01-02T00:56:38.686Z,21.3
2019-01-02T01:06:37.893Z,21.6
2019-01-02T01:16:37.105Z,21.5
2019-01-02T01:26:36.314Z,21.4
2019-01-02T01:36:35.507Z,21.3
2019-01-02T01:46:34.718Z,21.3
2019-01-02T01:56:33.923Z,21.3
2019-01-02T02:06:33.123Z,21.9
2019-01-02T02:16:32.333Z,21.6
2019-01-02T02:26:31.541Z,21.4
2019-01-02T02:36:30.733Z,21.3
2019-01-02T02:46:29.940Z,21.3
2019-01-02T02:56:29.142Z,21.4
2019-01-02T03:06:28.344Z,21.7
2019-01-02T03:16:27.554Z,21.5
2019-01-02T03:26:26.747Z,21.4
2019-01-02T03:36:25.955Z,21.3
2019-01-02T03:46:25.160Z,21.3
2019-01-02T03:56:24.364Z,21.3
2019-01-02T04:06:23.567Z,21.3
2019-01-02T04:16:22.769Z,21.2
2019-01-02T04:26:21.968Z,21.2
2019-01-02T04:36:21.169Z,21.2
2019-01-02T04:46:20.378Z,21.3
2019-01-02T04:56:19.576Z,21.3
2019-01-02T05:06:18.785Z,21.7
2019-01-02T05:16:17.987Z,21.5
2019-01-02T05:26:17.191Z,21.8
2019-01-02T05:36:16.395Z,21.6
2019-01-02T05:46:15.593Z,21.8
2019-01-02T05:56:14.802Z,21.6
2019-01-02T06:06:14.009Z,21.4
2019-01-02T06:16:13.219Z,21.4
2019-01-02T06:26:12.477Z,21.5
2019-01-02T06:36:11.627Z,21.4
2019-01-02T06:46:10.832Z,21.4
2019-01-02T06:56:10.040Z,21.4
2019-01-02T07:06:09.249Z,21.4
2019-01-02T07:16:08.446Z,21.3
2019-01-02T07:26:07.647Z,21.3
2019-01-02T07:36:06.851Z,21.3
2019-01-02T07:46:06.062Z,21.3
2019-01-02T07:56:05.254Z,21.3
2019-01-02T08:06:04.467Z,21.3
2019-01-02T08:16:03.668Z,21.3
2019-01-02T08:26:02.869Z,21.3
2019-01-02T08:36:02.071Z,21.6
2019-01-02T08:46:01.281Z,21.8
2019-01-02T08:56:00.488Z,22
2019-01-02T09:05:59.689Z,22.1
2019-01-02T09:15:58.893Z,22.1
2019-01-02T09:25:58.085Z,21.9
2019-01-02T09:35:57.319Z,21.8
2019-01-02T09:45:56.492Z,21.7
2019-01-02T09:55:55.699Z,21.6
2019-01-02T10:05:54.896Z,21.6
2019-01-02T10:15:54.101Z,21.5
2019-01-02T10:25:53.304Z,21.4
2019-01-02T10:35:52.507Z,21.4
2019-01-02T10:45:51.710Z,21.4
2019-01-02T10:55:50.909Z,21.4
2019-01-02T11:05:50.118Z,21.4
2019-01-02T11:15:49.323Z,21.4
2019-01-02T11:25:48.532Z,21.3
2019-01-02T11:35:47.735Z,21.3
2019-01-02T11:45:46.934Z,21.4
2019-01-02T11:55:46.139Z,21.4
2019-01-02T12:05:45.341Z,21.4
2019-01-02T12:15:44.550Z,21.4
2019-01-02T12:25:43.742Z,21.3
2019-01-02T12:35:42.945Z,21.3
2019-01-02T12:45:42.149Z,21.3
2019-01-02T12:55:41.354Z,21.4
2019-01-02T13:05:40.558Z,21.4
2019-01-02T13:15:39.756Z,21.3
2019-01-02T13:25:38.960Z,21.3
2019-01-02T13:35:38.158Z,21.4
2019-01-02T13:45:37.355Z,21.8
2019-01-02T13:55:36.564Z,22
2019-01-02T14:05:35.758Z,22.2
2019-01-02T14:15:34.958Z,22.4
2019-01-02T14:25:34.164Z,22.6
2019-01-02T14:35:33.364Z,22.6
2019-01-02T14:45:32.567Z,22.6
2019-01-02T14:55:31.761Z,22.4
2019-01-02T15:05:30.961Z,22
2019-01-02T15:15:30.166Z,21.8
2019-01-02T15:25:29.368Z,21.7
2019-01-02T15:35:28.565Z,21.7
2019-01-02T15:45:27.772Z,21.6
2019-01-02T15:55:26.970Z,21.6
2019-01-02T16:05:26.175Z,21.6
2019-01-02T16:15:25.382Z,21.6
2019-01-02T16:25:26.194Z,21.6
